sensor_id;sensor_type;location;lat;lon;timestamp;temperature;humidity
1175;DHT22;576;48.418;10.074;2022-10-04T00:02:29;21.70;66.70
1175;DHT22;576;48.418;10.074;2022-10-04T00:05:03;21.70;66.80
1175;DHT22;576;48.418;10.074;2022-10-04T00:07:36;21.60;66.80
1175;DHT22;576;48.418;10.074;2022-10-04T00:10:14;21.60;66.80
1175;DHT22;576;48.418;10.074;2022-10-04T00:12:46;21.60;66.80
1175;DHT22;576;48.418;10.074;2022-10-04T00:15:19;21.60;66.80
1175;DHT22;576;48.418;10.074;2022-10-04T00:18:00;21.60;66.80
1175;DHT22;576;48.418;10.074;2022-10-04T00:20:55;21.60;66.80
1175;DHT22;576;48.418;10.074;2022-10-04T00:23:27;21.60;66.80
1175;DHT22;576;48.418;10.074;2022-10-04T00:25:58;21.60;66.80
1175;DHT22;576;48.418;10.074;2022-10-04T00:28:31;21.60;66.80
1175;DHT22;576;48.418;10.074;2022-10-04T00:31:20;21.60;66.80
1175;DHT22;576;48.418;10.074;2022-10-04T00:33:54;21.60;66.80
1175;DHT22;576;48.418;10.074;2022-10-04T00:36:44;21.60;66.80
1175;DHT22;576;48.418;10.074;2022-10-04T00:39:38;21.50;66.90
1175;DHT22;576;48.418;10.074;2022-10-04T00:42:28;21.50;66.90
1175;DHT22;576;48.418;10.074;2022-10-04T00:45:01;21.50;66.90
1175;DHT22;576;48.418;10.074;2022-10-04T00:47:34;21.50;66.80
1175;DHT22;576;48.418;10.074;2022-10-04T00:50:14;21.50;66.80
1175;DHT22;576;48.418;10.074;2022-10-04T00:52:47;21.50;66.80
1175;DHT22;576;48.418;10.074;2022-10-04T00:55:23;21.50;66.90
1175;DHT22;576;48.418;10.074;2022-10-04T00:57:56;21.50;66.90
1175;DHT22;576;48.418;10.074;2022-10-04T01:00:28;21.50;66.80
1175;DHT22;576;48.418;10.074;2022-10-04T01:03:01;21.50;66.80
1175;DHT22;576;48.418;10.074;2022-10-04T01:05:33;21.50;66.80
1175;DHT22;576;48.418;10.074;2022-10-04T01:08:05;21.50;66.80
1175;DHT22;576;48.418;10.074;2022-10-04T01:10:39;21.50;66.80
1175;DHT22;576;48.418;10.074;2022-10-04T01:13:13;21.50;66.80
1175;DHT22;576;48.418;10.074;2022-10-04T01:15:47;21.40;66.80
1175;DHT22;576;48.418;10.074;2022-10-04T01:18:28;21.50;66.80
1175;DHT22;576;48.418;10.074;2022-10-04T01:20:58;21.40;66.80
1175;DHT22;576;48.418;10.074;2022-10-04T01:23:40;21.40;66.80
1175;DHT22;576;48.418;10.074;2022-10-04T01:26:35;21.40;66.80
1175;DHT22;576;48.418;10.074;2022-10-04T01:29:07;21.40;66.80
1175;DHT22;576;48.418;10.074;2022-10-04T01:31:39;21.40;66.80
1175;DHT22;576;48.418;10.074;2022-10-04T01:34:11;21.40;66.80
1175;DHT22;576;48.418;10.074;2022-10-04T01:36:40;21.40;66.80
1175;DHT22;576;48.418;10.074;2022-10-04T01:39:10;21.40;66.80
1175;DHT22;576;48.418;10.074;2022-10-04T01:41:44;21.40;66.80
1175;DHT22;576;48.418;10.074;2022-10-04T01:44:22;21.40;66.70
1175;DHT22;576;48.418;10.074;2022-10-04T01:46:54;21.40;66.70
1175;DHT22;576;48.418;10.074;2022-10-04T01:49:27;21.40;66.70
1175;DHT22;576;48.418;10.074;2022-10-04T01:51:59;21.40;66.70
1175;DHT22;576;48.418;10.074;2022-10-04T01:54:33;21.40;66.70
1175;DHT22;576;48.418;10.074;2022-10-04T01:57:09;21.40;66.70
1175;DHT22;576;48.418;10.074;2022-10-04T01:59:43;21.40;66.70
1175;DHT22;576;48.418;10.074;2022-10-04T02:02:23;21.40;66.70
1175;DHT22;576;48.418;10.074;2022-10-04T02:04:55;21.40;66.70
1175;DHT22;576;48.418;10.074;2022-10-04T02:07:27;21.40;66.70
1175;DHT22;576;48.418;10.074;2022-10-04T02:10:00;21.30;66.70
1175;DHT22;576;48.418;10.074;2022-10-04T02:12:30;21.40;66.70
1175;DHT22;576;48.418;10.074;2022-10-04T02:15:00;21.40;66.70
1175;DHT22;576;48.418;10.074;2022-10-04T02:17:31;21.30;66.70
1175;DHT22;576;48.418;10.074;2022-10-04T02:20:01;21.40;66.70
1175;DHT22;576;48.418;10.074;2022-10-04T02:22:30;21.30;66.70
1175;DHT22;576;48.418;10.074;2022-10-04T02:24:59;21.30;66.70
1175;DHT22;576;48.418;10.074;2022-10-04T02:27:28;21.30;66.70
1175;DHT22;576;48.418;10.074;2022-10-04T02:30:01;21.30;66.70
1175;DHT22;576;48.418;10.074;2022-10-04T02:32:30;21.30;66.70
1175;DHT22;576;48.418;10.074;2022-10-04T02:35:17;21.30;66.70
1175;DHT22;576;48.418;10.074;2022-10-04T02:37:47;21.30;66.70
1175;DHT22;576;48.418;10.074;2022-10-04T02:40:20;21.30;66.70
1175;DHT22;576;48.418;10.074;2022-10-04T02:42:56;21.30;66.70
1175;DHT22;576;48.418;10.074;2022-10-04T02:45:33;21.30;66.70
1175;DHT22;576;48.418;10.074;2022-10-04T02:48:14;21.30;66.70
1175;DHT22;576;48.418;10.074;2022-10-04T02:50:47;21.30;66.70
1175;DHT22;576;48.418;10.074;2022-10-04T02:53:20;21.30;66.70
1175;DHT22;576;48.418;10.074;2022-10-04T02:55:53;21.30;66.70
1175;DHT22;576;48.418;10.074;2022-10-04T02:58:23;21.30;66.70
1175;DHT22;576;48.418;10.074;2022-10-04T03:00:55;21.30;66.70
1175;DHT22;576;48.418;10.074;2022-10-04T03:03:25;21.30;66.70
1175;DHT22;576;48.418;10.074;2022-10-04T03:06:02;21.30;66.70
1175;DHT22;576;48.418;10.074;2022-10-04T03:08:34;21.20;66.70
1175;DHT22;576;48.418;10.074;2022-10-04T03:11:04;21.20;66.70
1175;DHT22;576;48.418;10.074;2022-10-04T03:13:32;21.20;66.70
1175;DHT22;576;48.418;10.074;2022-10-04T03:16:03;21.30;66.70
1175;DHT22;576;48.418;10.074;2022-10-04T03:18:34;21.20;66.70
1175;DHT22;576;48.418;10.074;2022-10-04T03:21:06;21.20;66.70
1175;DHT22;576;48.418;10.074;2022-10-04T03:23:36;21.20;66.70
1175;DHT22;576;48.418;10.074;2022-10-04T03:26:13;21.20;66.70
1175;DHT22;576;48.418;10.074;2022-10-04T03:28:45;21.20;66.70
1175;DHT22;576;48.418;10.074;2022-10-04T03:31:14;21.20;66.70
1175;DHT22;576;48.418;10.074;2022-10-04T03:33:42;21.20;66.70
1175;DHT22;576;48.418;10.074;2022-10-04T03:36:12;21.20;66.70
1175;DHT22;576;48.418;10.074;2022-10-04T03:38:42;21.20;66.70
1175;DHT22;576;48.418;10.074;2022-10-04T03:41:13;21.20;66.70
1175;DHT22;576;48.418;10.074;2022-10-04T03:43:45;21.20;66.70
1175;DHT22;576;48.418;10.074;2022-10-04T03:46:17;21.20;66.70
1175;DHT22;576;48.418;10.074;2022-10-04T03:48:48;21.20;66.70
1175;DHT22;576;48.418;10.074;2022-10-04T03:51:19;21.20;66.70
1175;DHT22;576;48.418;10.074;2022-10-04T03:53:50;21.20;66.70
1175;DHT22;576;48.418;10.074;2022-10-04T03:56:25;21.20;66.70
1175;DHT22;576;48.418;10.074;2022-10-04T03:58:54;21.20;66.70
1175;DHT22;576;48.418;10.074;2022-10-04T04:01:33;21.20;66.70
1175;DHT22;576;48.418;10.074;2022-10-04T04:04:11;21.20;66.70
1175;DHT22;576;48.418;10.074;2022-10-04T04:06:46;21.20;66.70
1175;DHT22;576;48.418;10.074;2022-10-04T04:09:20;21.10;66.70
1175;DHT22;576;48.418;10.074;2022-10-04T04:11:51;21.10;66.70
1175;DHT22;576;48.418;10.074;2022-10-04T04:14:24;21.20;66.70
1175;DHT22;576;48.418;10.074;2022-10-04T04:16:54;21.10;66.70
1175;DHT22;576;48.418;10.074;2022-10-04T04:19:44;21.10;66.70
1175;DHT22;576;48.418;10.074;2022-10-04T04:22:15;21.10;66.70
1175;DHT22;576;48.418;10.074;2022-10-04T04:24:44;21.10;66.70
1175;DHT22;576;48.418;10.074;2022-10-04T04:27:15;21.10;66.70
1175;DHT22;576;48.418;10.074;2022-10-04T04:29:47;21.10;66.70
1175;DHT22;576;48.418;10.074;2022-10-04T04:32:21;21.10;66.70
1175;DHT22;576;48.418;10.074;2022-10-04T04:34:59;21.10;66.70
1175;DHT22;576;48.418;10.074;2022-10-04T04:37:34;21.10;66.70
1175;DHT22;576;48.418;10.074;2022-10-04T04:40:18;21.10;66.70
1175;DHT22;576;48.418;10.074;2022-10-04T04:42:47;21.10;66.80
1175;DHT22;576;48.418;10.074;2022-10-04T04:45:17;21.10;66.70
1175;DHT22;576;48.418;10.074;2022-10-04T04:47:51;21.10;66.70
1175;DHT22;576;48.418;10.074;2022-10-04T04:50:23;21.10;66.70
1175;DHT22;576;48.418;10.074;2022-10-04T04:52:58;21.10;66.70
1175;DHT22;576;48.418;10.074;2022-10-04T04:55:31;21.10;66.70
1175;DHT22;576;48.418;10.074;2022-10-04T04:58:22;21.10;66.70
1175;DHT22;576;48.418;10.074;2022-10-04T05:00:54;21.10;66.70
1175;DHT22;576;48.418;10.074;2022-10-04T05:03:24;21.00;66.70
1175;DHT22;576;48.418;10.074;2022-10-04T05:05:54;21.00;66.70
1175;DHT22;576;48.418;10.074;2022-10-04T05:08:25;21.00;66.70
1175;DHT22;576;48.418;10.074;2022-10-04T05:11:01;21.00;66.70
1175;DHT22;576;48.418;10.074;2022-10-04T05:13:34;21.00;66.70
1175;DHT22;576;48.418;10.074;2022-10-04T05:16:09;21.00;66.70
1175;DHT22;576;48.418;10.074;2022-10-04T05:18:39;21.00;66.70
1175;DHT22;576;48.418;10.074;2022-10-04T05:21:14;21.00;66.70
1175;DHT22;576;48.418;10.074;2022-10-04T05:23:45;21.00;66.70
1175;DHT22;576;48.418;10.074;2022-10-04T05:26:13;21.00;66.80
1175;DHT22;576;48.418;10.074;2022-10-04T05:28:41;21.00;66.80
1175;DHT22;576;48.418;10.074;2022-10-04T05:31:24;21.00;66.80
1175;DHT22;576;48.418;10.074;2022-10-04T05:33:57;21.00;66.80
1175;DHT22;576;48.418;10.074;2022-10-04T05:36:45;21.00;66.80
1175;DHT22;576;48.418;10.074;2022-10-04T05:39:21;21.00;66.80
1175;DHT22;576;48.418;10.074;2022-10-04T05:41:56;21.00;66.80
1175;DHT22;576;48.418;10.074;2022-10-04T05:44:30;21.00;66.80
1175;DHT22;576;48.418;10.074;2022-10-04T05:47:05;21.00;66.70
1175;DHT22;576;48.418;10.074;2022-10-04T05:49:40;21.00;66.70
1175;DHT22;576;48.418;10.074;2022-10-04T05:52:15;21.00;66.90
1175;DHT22;576;48.418;10.074;2022-10-04T05:54:44;21.00;66.90
1175;DHT22;576;48.418;10.074;2022-10-04T05:57:24;21.10;66.80
1175;DHT22;576;48.418;10.074;2022-10-04T06:00:12;21.10;66.70
1175;DHT22;576;48.418;10.074;2022-10-04T06:03:19;21.10;66.70
1175;DHT22;576;48.418;10.074;2022-10-04T06:05:53;21.20;66.40
1175;DHT22;576;48.418;10.074;2022-10-04T06:08:30;21.20;66.40
1175;DHT22;576;48.418;10.074;2022-10-04T06:11:07;21.20;66.40
1175;DHT22;576;48.418;10.074;2022-10-04T06:13:59;21.20;66.50
1175;DHT22;576;48.418;10.074;2022-10-04T06:16:46;21.30;66.60
1175;DHT22;576;48.418;10.074;2022-10-04T06:19:42;21.20;66.80
1175;DHT22;576;48.418;10.074;2022-10-04T06:22:18;21.30;66.80
1175;DHT22;576;48.418;10.074;2022-10-04T06:24:49;21.30;66.80
1175;DHT22;576;48.418;10.074;2022-10-04T06:27:25;21.30;66.80
1175;DHT22;576;48.418;10.074;2022-10-04T06:29:56;21.40;66.80
1175;DHT22;576;48.418;10.074;2022-10-04T06:32:53;21.40;66.70
1175;DHT22;576;48.418;10.074;2022-10-04T06:35:51;21.40;66.60
1175;DHT22;576;48.418;10.074;2022-10-04T06:38:43;21.40;66.60
1175;DHT22;576;48.418;10.074;2022-10-04T06:41:36;21.40;66.80
1175;DHT22;576;48.418;10.074;2022-10-04T06:44:29;21.40;67.10
1175;DHT22;576;48.418;10.074;2022-10-04T06:47:19;21.30;67.30
1175;DHT22;576;48.418;10.074;2022-10-04T06:49:53;21.30;67.30
1175;DHT22;576;48.418;10.074;2022-10-04T06:52:33;21.30;67.40
1175;DHT22;576;48.418;10.074;2022-10-04T06:55:35;21.30;67.30
1175;DHT22;576;48.418;10.074;2022-10-04T06:58:28;21.30;67.30
1175;DHT22;576;48.418;10.074;2022-10-04T07:01:03;21.30;67.30
1175;DHT22;576;48.418;10.074;2022-10-04T07:03:39;21.30;67.20
1175;DHT22;576;48.418;10.074;2022-10-04T07:06:09;21.40;67.10
1175;DHT22;576;48.418;10.074;2022-10-04T07:08:43;21.40;67.00
1175;DHT22;576;48.418;10.074;2022-10-04T07:11:15;21.40;67.00
1175;DHT22;576;48.418;10.074;2022-10-04T07:13:53;21.40;67.00
1175;DHT22;576;48.418;10.074;2022-10-04T07:16:31;21.50;66.90
1175;DHT22;576;48.418;10.074;2022-10-04T07:19:16;21.50;66.80
1175;DHT22;576;48.418;10.074;2022-10-04T07:21:54;21.50;66.90
1175;DHT22;576;48.418;10.074;2022-10-04T07:24:30;21.50;66.80
1175;DHT22;576;48.418;10.074;2022-10-04T07:27:02;21.60;66.70
1175;DHT22;576;48.418;10.074;2022-10-04T07:29:36;21.60;66.70
1175;DHT22;576;48.418;10.074;2022-10-04T07:32:12;21.60;66.70
1175;DHT22;576;48.418;10.074;2022-10-04T07:34:45;21.60;66.60
1175;DHT22;576;48.418;10.074;2022-10-04T07:37:18;21.60;66.70
1175;DHT22;576;48.418;10.074;2022-10-04T07:39:52;21.60;66.60
1175;DHT22;576;48.418;10.074;2022-10-04T07:42:26;21.60;66.60
1175;DHT22;576;48.418;10.074;2022-10-04T07:45:09;21.70;66.50
1175;DHT22;576;48.418;10.074;2022-10-04T07:47:38;21.70;66.50
1175;DHT22;576;48.418;10.074;2022-10-04T07:50:29;21.70;66.50
1175;DHT22;576;48.418;10.074;2022-10-04T07:53:03;21.70;66.40
1175;DHT22;576;48.418;10.074;2022-10-04T07:55:50;21.70;66.40
1175;DHT22;576;48.418;10.074;2022-10-04T07:58:33;21.80;66.30
1175;DHT22;576;48.418;10.074;2022-10-04T08:01:18;21.80;66.50
1175;DHT22;576;48.418;10.074;2022-10-04T08:04:05;21.80;66.30
1175;DHT22;576;48.418;10.074;2022-10-04T08:06:42;21.80;66.20
1175;DHT22;576;48.418;10.074;2022-10-04T08:09:26;21.80;66.30
1175;DHT22;576;48.418;10.074;2022-10-04T08:12:04;21.80;66.20
1175;DHT22;576;48.418;10.074;2022-10-04T08:14:52;21.80;66.20
1175;DHT22;576;48.418;10.074;2022-10-04T08:17:37;21.80;66.30
1175;DHT22;576;48.418;10.074;2022-10-04T08:20:22;21.80;66.30
1175;DHT22;576;48.418;10.074;2022-10-04T08:23:18;21.80;66.30
1175;DHT22;576;48.418;10.074;2022-10-04T08:25:53;21.80;66.30
1175;DHT22;576;48.418;10.074;2022-10-04T08:28:32;21.80;66.20
1175;DHT22;576;48.418;10.074;2022-10-04T08:31:30;21.80;66.20
1175;DHT22;576;48.418;10.074;2022-10-04T08:34:11;21.90;66.20
1175;DHT22;576;48.418;10.074;2022-10-04T08:36:55;21.90;66.10
1175;DHT22;576;48.418;10.074;2022-10-04T08:39:39;21.90;66.10
1175;DHT22;576;48.418;10.074;2022-10-04T08:42:39;21.90;66.10
1175;DHT22;576;48.418;10.074;2022-10-04T08:45:56;21.90;66.00
1175;DHT22;576;48.418;10.074;2022-10-04T08:49:06;22.00;66.00
1175;DHT22;576;48.418;10.074;2022-10-04T08:52:06;22.00;65.90
1175;DHT22;576;48.418;10.074;2022-10-04T08:58:13;22.00;65.90
1175;DHT22;576;48.418;10.074;2022-10-04T09:00:58;22.00;65.90
1175;DHT22;576;48.418;10.074;2022-10-04T09:03:56;22.10;65.80
1175;DHT22;576;48.418;10.074;2022-10-04T09:06:48;22.10;65.80
1175;DHT22;576;48.418;10.074;2022-10-04T09:09:50;22.10;65.70
1175;DHT22;576;48.418;10.074;2022-10-04T09:12:45;22.10;65.70
1175;DHT22;576;48.418;10.074;2022-10-04T09:15:28;22.20;65.60
1175;DHT22;576;48.418;10.074;2022-10-04T09:18:25;22.20;65.50
1175;DHT22;576;48.418;10.074;2022-10-04T09:20:56;22.20;65.50
1175;DHT22;576;48.418;10.074;2022-10-04T09:26:44;22.30;65.30
1175;DHT22;576;48.418;10.074;2022-10-04T09:29:45;22.40;65.20
1175;DHT22;576;48.418;10.074;2022-10-04T09:36:13;22.40;65.10
1175;DHT22;576;48.418;10.074;2022-10-04T09:39:30;22.40;65.00
1175;DHT22;576;48.418;10.074;2022-10-04T09:45:18;22.40;64.90
1175;DHT22;576;48.418;10.074;2022-10-04T09:48:04;22.50;64.90
1175;DHT22;576;48.418;10.074;2022-10-04T09:50:51;22.50;64.90
1175;DHT22;576;48.418;10.074;2022-10-04T09:53:41;22.50;64.80
1175;DHT22;576;48.418;10.074;2022-10-04T09:59:30;22.60;64.60
1175;DHT22;576;48.418;10.074;2022-10-04T10:08:12;22.60;64.60
1175;DHT22;576;48.418;10.074;2022-10-04T10:10:51;22.60;64.60
1175;DHT22;576;48.418;10.074;2022-10-04T10:17:17;22.70;64.50
1175;DHT22;576;48.418;10.074;2022-10-04T10:20:07;22.70;64.40
1175;DHT22;576;48.418;10.074;2022-10-04T10:23:13;22.70;64.40
1175;DHT22;576;48.418;10.074;2022-10-04T10:26:00;22.80;64.20
1175;DHT22;576;48.418;10.074;2022-10-04T10:28:50;22.80;64.10
1175;DHT22;576;48.418;10.074;2022-10-04T10:31:44;22.80;64.00
1175;DHT22;576;48.418;10.074;2022-10-04T10:37:40;23.00;63.70
1175;DHT22;576;48.418;10.074;2022-10-04T10:43:33;23.10;63.10
1175;DHT22;576;48.418;10.074;2022-10-04T10:46:16;23.30;62.60
1175;DHT22;576;48.418;10.074;2022-10-04T10:49:00;23.40;62.20
1175;DHT22;576;48.418;10.074;2022-10-04T10:56:15;23.60;62.00
1175;DHT22;576;48.418;10.074;2022-10-04T11:02:35;23.80;61.70
1175;DHT22;576;48.418;10.074;2022-10-04T11:11:41;24.10;61.00
1175;DHT22;576;48.418;10.074;2022-10-04T11:14:29;24.20;60.80
1175;DHT22;576;48.418;10.074;2022-10-04T11:17:29;24.30;60.50
1175;DHT22;576;48.418;10.074;2022-10-04T11:20:38;24.40;60.50
1175;DHT22;576;48.418;10.074;2022-10-04T11:29:46;24.60;60.10
1175;DHT22;576;48.418;10.074;2022-10-04T11:35:40;24.60;60.10
1175;DHT22;576;48.418;10.074;2022-10-04T11:38:24;24.60;60.00
1175;DHT22;576;48.418;10.074;2022-10-04T11:41:11;24.60;60.00
1175;DHT22;576;48.418;10.074;2022-10-04T11:44:03;24.60;60.00
1175;DHT22;576;48.418;10.074;2022-10-04T11:46:49;24.70;59.90
1175;DHT22;576;48.418;10.074;2022-10-04T11:49:37;24.70;59.70
1175;DHT22;576;48.418;10.074;2022-10-04T11:58:15;24.90;59.40
1175;DHT22;576;48.418;10.074;2022-10-04T12:01:24;24.90;59.30
1175;DHT22;576;48.418;10.074;2022-10-04T12:07:09;24.90;59.20
1175;DHT22;576;48.418;10.074;2022-10-04T12:09:44;25.00;59.20
1175;DHT22;576;48.418;10.074;2022-10-04T12:12:27;24.90;59.20
1175;DHT22;576;48.418;10.074;2022-10-04T12:15:22;24.90;59.30
1175;DHT22;576;48.418;10.074;2022-10-04T12:18:28;24.90;59.40
1175;DHT22;576;48.418;10.074;2022-10-04T12:21:36;25.00;59.20
1175;DHT22;576;48.418;10.074;2022-10-04T12:27:49;25.00;59.20
1175;DHT22;576;48.418;10.074;2022-10-04T12:30:26;25.00;59.20
1175;DHT22;576;48.418;10.074;2022-10-04T12:33:04;25.00;59.40
1175;DHT22;576;48.418;10.074;2022-10-04T12:35:46;25.00;59.40
1175;DHT22;576;48.418;10.074;2022-10-04T12:41:29;24.90;59.50
1175;DHT22;576;48.418;10.074;2022-10-04T12:44:06;24.80;59.70
1175;DHT22;576;48.418;10.074;2022-10-04T12:46:46;24.80;59.80
1175;DHT22;576;48.418;10.074;2022-10-04T12:49:26;24.90;59.80
1175;DHT22;576;48.418;10.074;2022-10-04T12:52:01;24.90;59.50
1175;DHT22;576;48.418;10.074;2022-10-04T12:54:38;24.90;59.60
1175;DHT22;576;48.418;10.074;2022-10-04T12:57:26;25.00;59.60
1175;DHT22;576;48.418;10.074;2022-10-04T13:00:04;24.90;59.90
1175;DHT22;576;48.418;10.074;2022-10-04T13:05:41;24.70;60.00
1175;DHT22;576;48.418;10.074;2022-10-04T13:08:23;24.70;60.20
1175;DHT22;576;48.418;10.074;2022-10-04T13:11:11;24.70;60.50
1175;DHT22;576;48.418;10.074;2022-10-04T13:13:55;24.70;60.60
1175;DHT22;576;48.418;10.074;2022-10-04T13:16:38;24.70;60.50
1175;DHT22;576;48.418;10.074;2022-10-04T13:19:36;24.80;60.50
1175;DHT22;576;48.418;10.074;2022-10-04T13:22:18;24.80;60.50
1175;DHT22;576;48.418;10.074;2022-10-04T13:25:19;24.80;60.60
1175;DHT22;576;48.418;10.074;2022-10-04T13:27:58;24.80;60.70
1175;DHT22;576;48.418;10.074;2022-10-04T13:30:34;24.80;60.80
1175;DHT22;576;48.418;10.074;2022-10-04T13:33:13;24.90;60.80
1175;DHT22;576;48.418;10.074;2022-10-04T13:35:50;24.90;60.80
1175;DHT22;576;48.418;10.074;2022-10-04T13:38:45;24.90;60.90
1175;DHT22;576;48.418;10.074;2022-10-04T13:41:30;24.80;60.90
1175;DHT22;576;48.418;10.074;2022-10-04T13:44:22;24.80;60.70
1175;DHT22;576;48.418;10.074;2022-10-04T13:47:14;24.70;60.90
1175;DHT22;576;48.418;10.074;2022-10-04T13:50:01;24.70;61.00
1175;DHT22;576;48.418;10.074;2022-10-04T13:52:40;24.60;61.10
1175;DHT22;576;48.418;10.074;2022-10-04T13:55:32;24.60;61.10
1175;DHT22;576;48.418;10.074;2022-10-04T13:58:30;24.60;61.20
1175;DHT22;576;48.418;10.074;2022-10-04T14:01:31;24.60;61.30
1175;DHT22;576;48.418;10.074;2022-10-04T14:04:17;24.50;61.20
1175;DHT22;576;48.418;10.074;2022-10-04T14:07:10;24.50;61.40
1175;DHT22;576;48.418;10.074;2022-10-04T14:09:55;24.50;61.30
1175;DHT22;576;48.418;10.074;2022-10-04T14:12:52;24.50;61.40
1175;DHT22;576;48.418;10.074;2022-10-04T14:22:12;24.50;61.30
1175;DHT22;576;48.418;10.074;2022-10-04T14:28:15;24.60;61.30
1175;DHT22;576;48.418;10.074;2022-10-04T14:31:01;24.60;61.20
1175;DHT22;576;48.418;10.074;2022-10-04T14:36:52;24.60;61.30
1175;DHT22;576;48.418;10.074;2022-10-04T14:39:39;24.60;61.30
1175;DHT22;576;48.418;10.074;2022-10-04T14:45:28;24.60;61.30
1175;DHT22;576;48.418;10.074;2022-10-04T14:48:17;24.60;61.30
1175;DHT22;576;48.418;10.074;2022-10-04T14:51:04;24.60;61.40
1175;DHT22;576;48.418;10.074;2022-10-04T14:53:41;24.60;61.20
1175;DHT22;576;48.418;10.074;2022-10-04T14:56:44;24.60;61.30
1175;DHT22;576;48.418;10.074;2022-10-04T14:59:34;24.60;61.30
1175;DHT22;576;48.418;10.074;2022-10-04T15:05:41;24.50;61.40
1175;DHT22;576;48.418;10.074;2022-10-04T15:11:33;24.50;61.40
1175;DHT22;576;48.418;10.074;2022-10-04T15:14:22;24.40;61.40
1175;DHT22;576;48.418;10.074;2022-10-04T15:16:55;24.40;61.60
1175;DHT22;576;48.418;10.074;2022-10-04T15:19:28;24.40;61.60
1175;DHT22;576;48.418;10.074;2022-10-04T15:22:03;24.30;61.60
1175;DHT22;576;48.418;10.074;2022-10-04T15:24:45;24.30;61.70
1175;DHT22;576;48.418;10.074;2022-10-04T15:27:48;24.20;61.70
1175;DHT22;576;48.418;10.074;2022-10-04T15:30:30;24.20;61.80
1175;DHT22;576;48.418;10.074;2022-10-04T15:33:24;24.10;61.90
1175;DHT22;576;48.418;10.074;2022-10-04T15:36:22;24.10;62.00
1175;DHT22;576;48.418;10.074;2022-10-04T15:38:53;24.00;62.20
1175;DHT22;576;48.418;10.074;2022-10-04T15:41:33;23.90;62.30
1175;DHT22;576;48.418;10.074;2022-10-04T15:44:18;23.80;62.40
1175;DHT22;576;48.418;10.074;2022-10-04T15:47:08;23.80;62.40
1175;DHT22;576;48.418;10.074;2022-10-04T15:55:59;23.70;62.70
1175;DHT22;576;48.418;10.074;2022-10-04T15:58:42;23.60;62.80
1175;DHT22;576;48.418;10.074;2022-10-04T16:01:43;23.60;62.80
1175;DHT22;576;48.418;10.074;2022-10-04T16:07:40;23.60;62.90
1175;DHT22;576;48.418;10.074;2022-10-04T16:10:21;23.60;62.90
1175;DHT22;576;48.418;10.074;2022-10-04T16:13:16;23.60;62.90
1175;DHT22;576;48.418;10.074;2022-10-04T16:16:15;23.60;63.00
1175;DHT22;576;48.418;10.074;2022-10-04T16:18:50;23.60;63.10
1175;DHT22;576;48.418;10.074;2022-10-04T16:21:29;23.60;63.00
1175;DHT22;576;48.418;10.074;2022-10-04T16:27:18;23.50;63.00
1175;DHT22;576;48.418;10.074;2022-10-04T16:29:54;23.50;63.00
1175;DHT22;576;48.418;10.074;2022-10-04T16:33:01;23.50;63.10
1175;DHT22;576;48.418;10.074;2022-10-04T16:35:34;23.50;63.20
1175;DHT22;576;48.418;10.074;2022-10-04T16:38:18;23.50;63.20
1175;DHT22;576;48.418;10.074;2022-10-04T16:41:04;23.60;63.90
1175;DHT22;576;48.418;10.074;2022-10-04T16:43:37;23.60;63.70
1175;DHT22;576;48.418;10.074;2022-10-04T16:46:22;23.70;63.60
1175;DHT22;576;48.418;10.074;2022-10-04T16:48:55;23.70;63.50
1175;DHT22;576;48.418;10.074;2022-10-04T16:55:00;23.80;63.30
1175;DHT22;576;48.418;10.074;2022-10-04T16:57:30;23.70;63.30
1175;DHT22;576;48.418;10.074;2022-10-04T16:59:59;23.70;63.30
1175;DHT22;576;48.418;10.074;2022-10-04T17:05:57;23.70;63.40
1175;DHT22;576;48.418;10.074;2022-10-04T17:08:46;23.70;63.30
1175;DHT22;576;48.418;10.074;2022-10-04T17:11:44;23.70;63.30
1175;DHT22;576;48.418;10.074;2022-10-04T17:14:29;23.80;64.20
1175;DHT22;576;48.418;10.074;2022-10-04T17:17:00;23.80;64.80
1175;DHT22;576;48.418;10.074;2022-10-04T17:19:41;23.80;64.60
1175;DHT22;576;48.418;10.074;2022-10-04T17:22:26;23.80;64.40
1175;DHT22;576;48.418;10.074;2022-10-04T17:25:03;23.80;64.40
1175;DHT22;576;48.418;10.074;2022-10-04T17:27:46;23.80;64.50
1175;DHT22;576;48.418;10.074;2022-10-04T17:30:18;23.70;64.40
1175;DHT22;576;48.418;10.074;2022-10-04T17:36:17;23.70;64.40
1175;DHT22;576;48.418;10.074;2022-10-04T17:38:53;23.70;64.40
1175;DHT22;576;48.418;10.074;2022-10-04T17:41:41;23.60;64.40
1175;DHT22;576;48.418;10.074;2022-10-04T17:44:38;23.60;64.40
1175;DHT22;576;48.418;10.074;2022-10-04T17:47:15;23.60;64.40
1175;DHT22;576;48.418;10.074;2022-10-04T17:49:55;23.60;64.30
1175;DHT22;576;48.418;10.074;2022-10-04T17:52:46;23.60;64.30
1175;DHT22;576;48.418;10.074;2022-10-04T17:55:43;23.50;64.30
1175;DHT22;576;48.418;10.074;2022-10-04T17:58:16;23.50;64.30
1175;DHT22;576;48.418;10.074;2022-10-04T18:00:56;23.50;64.30
1175;DHT22;576;48.418;10.074;2022-10-04T18:03:31;23.50;64.30
1175;DHT22;576;48.418;10.074;2022-10-04T18:06:13;23.50;64.30
1175;DHT22;576;48.418;10.074;2022-10-04T18:08:49;23.50;64.30
1175;DHT22;576;48.418;10.074;2022-10-04T18:11:24;23.50;64.40
1175;DHT22;576;48.418;10.074;2022-10-04T18:13:59;23.40;64.40
1175;DHT22;576;48.418;10.074;2022-10-04T18:16:40;23.40;64.40
1175;DHT22;576;48.418;10.074;2022-10-04T18:19:29;23.40;64.40
1175;DHT22;576;48.418;10.074;2022-10-04T18:22:08;23.40;64.50
1175;DHT22;576;48.418;10.074;2022-10-04T18:24:37;23.40;64.50
1175;DHT22;576;48.418;10.074;2022-10-04T18:27:17;23.40;64.50
1175;DHT22;576;48.418;10.074;2022-10-04T18:30:06;23.30;64.60
1175;DHT22;576;48.418;10.074;2022-10-04T18:32:42;23.30;64.60
1175;DHT22;576;48.418;10.074;2022-10-04T18:35:25;23.30;64.70
1175;DHT22;576;48.418;10.074;2022-10-04T18:37:55;23.30;64.70
1175;DHT22;576;48.418;10.074;2022-10-04T18:40:31;23.30;64.70
1175;DHT22;576;48.418;10.074;2022-10-04T18:43:00;23.30;64.70
1175;DHT22;576;48.418;10.074;2022-10-04T18:45:29;23.20;64.70
1175;DHT22;576;48.418;10.074;2022-10-04T18:48:00;23.20;64.70
1175;DHT22;576;48.418;10.074;2022-10-04T18:50:33;23.20;64.90
1175;DHT22;576;48.418;10.074;2022-10-04T18:53:17;23.20;64.90
1175;DHT22;576;48.418;10.074;2022-10-04T18:55:57;23.20;64.90
1175;DHT22;576;48.418;10.074;2022-10-04T18:58:47;23.20;64.90
1175;DHT22;576;48.418;10.074;2022-10-04T19:02:01;23.20;64.90
1175;DHT22;576;48.418;10.074;2022-10-04T19:04:42;23.20;64.90
1175;DHT22;576;48.418;10.074;2022-10-04T19:07:14;23.20;65.00
1175;DHT22;576;48.418;10.074;2022-10-04T19:10:08;23.10;65.00
1175;DHT22;576;48.418;10.074;2022-10-04T19:12:49;23.10;65.00
1175;DHT22;576;48.418;10.074;2022-10-04T19:15:33;23.10;65.20
1175;DHT22;576;48.418;10.074;2022-10-04T19:18:21;23.10;65.20
1175;DHT22;576;48.418;10.074;2022-10-04T19:20:58;23.10;65.20
1175;DHT22;576;48.418;10.074;2022-10-04T19:23:33;23.10;65.20
1175;DHT22;576;48.418;10.074;2022-10-04T19:26:09;23.10;65.20
1175;DHT22;576;48.418;10.074;2022-10-04T19:29:02;23.10;65.20
1175;DHT22;576;48.418;10.074;2022-10-04T19:31:37;23.10;65.20